Time;durP1;ratioP1;P1;durP2;ratioP2;P2;SDS_P1;SDS_P2;PMS_P1;PMS_P2;Temp;Humidity;BMP_temperature;BMP_pressure;BME280_temperature;BME280_humidity;BME280_pressure;Samples;Min_cycle;Max_cycle;Signal;HPM_P1;HPM_P2
2021/01/09 00:02:13;;;;;;;26.70;15.38;;;-3.10;89.20;;;;;;4971700;28;20464;-80
2021/01/09 00:04:40;;;;;;;29.58;15.63;;;-3.20;88.70;;;;;;4977672;28;20052;-80
2021/01/09 00:07:09;;;;;;;32.85;16.48;;;-3.30;89.00;;;;;;4982425;28;20026;-79
2021/01/09 00:09:37;;;;;;;32.88;19.17;;;-3.30;89.20;;;;;;4988906;28;20035;-81
2021/01/09 00:12:04;;;;;;;24.17;16.48;;;-3.40;89.40;;;;;;4977752;28;20027;-81
2021/01/09 00:14:30;;;;;;;32.25;16.80;;;-3.40;89.90;;;;;;4977355;28;20023;-82
2021/01/09 00:16:56;;;;;;;26.73;16.88;;;-3.40;90.10;;;;;;4977089;28;20025;-81
2021/01/09 00:19:22;;;;;;;26.33;14.50;;;-3.30;90.10;;;;;;4959612;28;20387;-82
2021/01/09 00:21:48;;;;;;;24.83;14.25;;;-3.30;89.90;;;;;;4974972;28;20027;-81
2021/01/09 00:24:14;;;;;;;28.02;15.05;;;-3.30;89.40;;;;;;4955227;28;20049;-81
2021/01/09 00:26:40;;;;;;;38.80;16.52;;;-3.40;89.10;;;;;;4973120;28;20445;-83
2021/01/09 00:29:06;;;;;;;38.78;18.55;;;-3.50;88.60;;;;;;4986024;28;20015;-80
2021/01/09 00:31:32;;;;;;;33.65;16.05;;;-3.50;89.00;;;;;;4991964;28;20027;-80
2021/01/09 00:33:58;;;;;;;28.80;15.57;;;-3.50;89.00;;;;;;4977554;28;20058;-81
2021/01/09 00:36:24;;;;;;;38.03;20.05;;;-3.60;89.10;;;;;;4959093;28;20089;-81
2021/01/09 00:38:52;;;;;;;30.45;15.73;;;-3.60;89.50;;;;;;4976859;28;20057;-81
2021/01/09 00:41:32;;;;;;;32.17;16.08;;;-3.60;89.30;;;;;;4976726;28;20019;-80
2021/01/09 00:43:59;;;;;;;28.63;14.95;;;-3.60;89.20;;;;;;4976541;28;20038;-79
2021/01/09 00:46:26;;;;;;;26.65;12.95;;;-3.60;89.60;;;;;;4976838;28;20018;-79
2021/01/09 00:48:51;;;;;;;31.63;15.57;;;-3.60;89.80;;;;;;4959185;28;20109;-80
2021/01/09 00:51:18;;;;;;;32.13;17.70;;;-3.60;90.00;;;;;;4976442;28;20022;-81
2021/01/09 00:53:44;;;;;;;32.78;17.70;;;-3.60;90.10;;;;;;4975767;28;20066;-80
2021/01/09 00:56:15;;;;;;;34.83;18.07;;;-3.60;89.80;;;;;;4959549;28;20499;-80
2021/01/09 00:58:41;;;;;;;31.63;16.50;;;-3.60;90.00;;;;;;4974884;28;20113;-80
2021/01/09 01:01:07;;;;;;;30.45;17.73;;;-3.50;90.10;;;;;;4986434;28;20353;-80
2021/01/09 01:03:33;;;;;;;34.13;18.23;;;-3.50;90.00;;;;;;4981614;28;20089;-80
2021/01/09 01:05:59;;;;;;;36.17;17.83;;;-3.50;89.90;;;;;;4977937;28;20015;-79
2021/01/09 01:08:24;;;;;;;33.53;17.08;;;-3.50;90.00;;;;;;4982684;28;20038;-78
2021/01/09 01:10:50;;;;;;;26.95;15.15;;;-3.50;90.00;;;;;;4980709;28;20031;-81
2021/01/09 01:13:16;;;;;;;33.92;15.82;;;-3.60;90.00;;;;;;4978838;28;20074;-79
2021/01/09 01:15:43;;;;;;;29.35;14.82;;;-3.60;90.10;;;;;;4977228;28;20050;-79
2021/01/09 01:18:09;;;;;;;36.05;18.17;;;-3.70;90.10;;;;;;4976507;28;20030;-80
2021/01/09 01:20:35;;;;;;;31.77;15.90;;;-3.70;90.20;;;;;;4976107;28;20483;-79
2021/01/09 01:23:00;;;;;;;34.72;18.15;;;-3.60;90.20;;;;;;4975898;28;20026;-80
2021/01/09 01:25:26;;;;;;;33.33;17.77;;;-3.60;90.10;;;;;;4975628;28;20385;-80
2021/01/09 01:27:52;;;;;;;33.10;17.63;;;-3.60;90.10;;;;;;4973984;28;20022;-79
2021/01/09 01:30:18;;;;;;;30.05;17.58;;;-3.60;90.10;;;;;;4947380;28;20031;-80
2021/01/09 01:32:44;;;;;;;33.53;17.65;;;-3.60;90.20;;;;;;4958812;28;20037;-79
2021/01/09 01:35:10;;;;;;;30.10;16.92;;;-3.60;90.20;;;;;;4976634;28;20035;-80
2021/01/09 01:37:36;;;;;;;28.65;16.27;;;-3.50;90.30;;;;;;4975812;28;20387;-80
2021/01/09 01:40:04;;;;;;;31.20;16.10;;;-3.40;90.30;;;;;;4983150;28;20106;-78
2021/01/09 01:42:30;;;;;;;33.05;16.88;;;-3.40;90.20;;;;;;4982331;28;20452;-80
2021/01/09 01:44:56;;;;;;;32.17;17.83;;;-3.30;90.20;;;;;;4976009;28;20027;-80
2021/01/09 01:47:22;;;;;;;34.45;16.85;;;-3.30;90.10;;;;;;4975925;28;20034;-79
2021/01/09 01:49:49;;;;;;;35.90;16.60;;;-3.30;89.60;;;;;;4975825;28;20081;-80
2021/01/09 01:52:15;;;;;;;;;;;-3.40;89.20;;;;;;4976896;28;20015;-79
2021/01/09 01:54:42;;;;;;;28.13;15.93;;;-3.40;89.50;;;;;;4979330;28;19932;-79
2021/01/09 01:57:12;;;;;;;30.70;15.95;;;-3.50;89.60;;;;;;4965636;28;20027;-80
2021/01/09 01:59:42;;;;;;;38.85;17.05;;;-3.40;89.70;;;;;;4976360;28;20035;-81
2021/01/09 02:02:13;;;;;;;32.83;15.45;;;-3.40;89.70;;;;;;4976533;28;20023;-80
2021/01/09 02:04:40;;;;;;;23.77;13.43;;;-3.40;89.30;;;;;;4975778;28;20058;-81
2021/01/09 02:07:11;;;;;;;29.17;15.85;;;-3.40;89.40;;;;;;4957700;28;20388;-82
2021/01/09 02:09:44;;;;;;;26.00;14.68;;;-3.40;89.00;;;;;;4948737;29;20047;-81
2021/01/09 02:12:43;;;;;;;28.40;13.57;;;-3.50;88.90;;;;;;4972292;28;20023;-82
2021/01/09 02:15:11;;;;;;;33.15;17.17;;;-3.50;88.70;;;;;;4975358;28;20512;-80
2021/01/09 02:17:39;;;;;;;30.80;16.55;;;-3.60;88.70;;;;;;4961953;28;20492;-81
2021/01/09 02:20:06;;;;;;;33.88;16.85;;;-3.60;88.90;;;;;;4975329;28;20050;-81
2021/01/09 02:22:44;;;;;;;24.20;13.32;;;-3.60;88.90;;;;;;4975135;28;20025;-81
2021/01/09 02:25:11;;;;;;;30.38;16.15;;;-3.70;88.90;;;;;;4963460;28;20105;-79
2021/01/09 02:27:38;;;;;;;28.52;15.75;;;-3.70;89.00;;;;;;4976346;28;20106;-80
2021/01/09 02:30:13;;;;;;;29.33;16.15;;;-3.70;88.90;;;;;;4984563;28;20102;-79
2021/01/09 02:33:03;;;;;;;28.27;15.52;;;-3.70;89.00;;;;;;4989154;28;20091;-80
2021/01/09 02:35:32;;;;;;;30.25;15.85;;;-3.70;88.90;;;;;;4959816;28;20476;-81
2021/01/09 02:37:59;;;;;;;27.33;15.93;;;-3.70;89.10;;;;;;4980146;28;20033;-80
2021/01/09 02:40:24;;;;;;;20.88;11.77;;;-3.70;88.90;;;;;;4975497;28;20114;-81
2021/01/09 02:42:50;;;;;;;18.05;12.15;;;-3.70;89.10;;;;;;4975048;28;20102;-81
2021/01/09 02:45:16;;;;;;;33.65;16.65;;;-3.80;89.40;;;;;;4973099;28;20436;-81
2021/01/09 02:47:42;;;;;;;31.58;17.65;;;-3.80;89.80;;;;;;4957641;28;20066;-80
2021/01/09 02:50:10;;;;;;;32.67;20.85;;;-3.70;89.60;;;;;;4974458;28;20031;-79
2021/01/09 02:52:38;;;;;;;27.25;14.65;;;-3.70;88.50;;;;;;4974795;28;20332;-81
2021/01/09 02:55:04;;;;;;;;;;;-3.80;88.10;;;;;;4955587;28;20027;-81
2021/01/09 02:57:30;;;;;;;20.90;11.70;;;-3.80;88.40;;;;;;4962671;28;19952;-80
2021/01/09 02:59:56;;;;;;;30.63;13.43;;;-3.80;88.80;;;;;;4974324;28;20567;-81
2021/01/09 03:02:21;;;;;;;32.95;16.35;;;-3.80;88.90;;;;;;4974068;28;20078;-80
2021/01/09 03:04:47;;;;;;;25.73;12.60;;;-3.80;88.80;;;;;;4974475;28;20022;-80
2021/01/09 03:07:13;;;;;;;26.70;14.75;;;-3.70;88.70;;;;;;4975503;28;20125;-78
2021/01/09 03:09:39;;;;;;;27.30;14.20;;;-3.70;88.30;;;;;;4983702;28;20106;-78
2021/01/09 03:12:06;;;;;;;25.48;16.42;;;-3.70;88.30;;;;;;4963691;28;20030;-80
2021/01/09 03:14:32;;;;;;;26.30;13.80;;;-3.70;87.90;;;;;;4975540;28;20019;-80
2021/01/09 03:16:58;;;;;;;26.10;15.45;;;-3.80;87.50;;;;;;4956616;28;20366;-81
2021/01/09 03:19:24;;;;;;;32.70;14.50;;;-3.80;88.40;;;;;;4974276;28;20019;-81
2021/01/09 03:21:49;;;;;;;22.65;14.07;;;-3.80;88.30;;;;;;4974302;28;20106;-80
2021/01/09 03:24:16;;;;;;;25.25;13.38;;;-3.80;88.50;;;;;;4974329;28;20027;-81
2021/01/09 03:26:42;;;;;;;31.95;15.82;;;-3.70;88.60;;;;;;4974078;28;20432;-81
2021/01/09 03:29:09;;;;;;;30.33;15.00;;;-3.70;88.00;;;;;;4962362;28;20047;-80
2021/01/09 03:31:35;;;;;;;28.85;16.40;;;-3.70;88.00;;;;;;4972547;28;20074;-80
2021/01/09 03:34:01;;;;;;;28.05;13.40;;;-3.70;87.60;;;;;;4974233;28;20035;-82
2021/01/09 03:36:27;;;;;;;30.20;16.10;;;-3.70;87.50;;;;;;4974262;28;20380;-81
2021/01/09 03:38:52;;;;;;;25.42;15.00;;;-3.80;87.50;;;;;;4982351;28;20022;-79
2021/01/09 03:41:18;;;;;;;28.27;15.85;;;-3.90;87.80;;;;;;4985680;28;20046;-80
2021/01/09 03:43:44;;;;;;;29.67;16.88;;;-3.90;88.20;;;;;;4976971;28;20484;-81
2021/01/09 03:46:10;;;;;;;26.40;15.13;;;-3.90;88.30;;;;;;4974626;28;20031;-81
2021/01/09 03:48:36;;;;;;;29.33;15.23;;;-3.90;88.60;;;;;;4974505;28;20038;-81
2021/01/09 03:51:02;;;;;;;29.60;16.45;;;-3.90;88.30;;;;;;4974485;28;20039;-81
2021/01/09 03:53:27;;;;;;;34.00;14.63;;;-3.90;88.70;;;;;;4974661;28;20029;-80
2021/01/09 03:55:53;;;;;;;24.63;13.77;;;-3.80;88.90;;;;;;4974590;28;20026;-81
2021/01/09 03:58:19;;;;;;;31.73;17.80;;;-3.80;89.10;;;;;;4956418;28;20030;-82
2021/01/09 04:00:45;;;;;;;29.50;14.23;;;-3.80;88.50;;;;;;4956315;28;20036;-81
2021/01/09 04:03:11;;;;;;;31.23;15.90;;;-3.80;88.60;;;;;;4973664;28;20480;-81
2021/01/09 04:05:36;;;;;;;24.70;13.55;;;-3.80;88.50;;;;;;4973762;28;20023;-81
2021/01/09 04:08:02;;;;;;;23.30;13.48;;;-3.80;88.60;;;;;;4973679;28;20034;-79
2021/01/09 04:10:28;;;;;;;25.10;15.57;;;-3.90;89.20;;;;;;4973377;28;20380;-81
2021/01/09 04:12:54;;;;;;;23.60;11.15;;;-3.90;89.10;;;;;;4973609;28;20023;-80
2021/01/09 04:15:20;;;;;;;26.20;14.50;;;-3.90;88.90;;;;;;4973588;28;20027;-81
2021/01/09 04:17:46;;;;;;;26.15;12.90;;;-4.00;88.90;;;;;;4973206;28;20135;-81
2021/01/09 04:20:11;;;;;;;31.15;15.07;;;-4.00;89.80;;;;;;4973240;28;20023;-79
2021/01/09 04:22:37;;;;;;;28.88;14.45;;;-4.10;89.20;;;;;;4955992;28;20031;-81
2021/01/09 04:25:04;;;;;;;26.75;15.18;;;-4.00;89.60;;;;;;4957132;28;20125;-80
2021/01/09 04:27:30;;;;;;;33.05;16.48;;;-4.10;89.70;;;;;;4973831;28;20050;-81
2021/01/09 04:29:55;;;;;;;27.05;14.93;;;-4.00;89.60;;;;;;4982421;28;20072;-81
2021/01/09 04:32:21;;;;;;;32.10;14.45;;;-4.00;89.80;;;;;;5000017;28;20038;-80
2021/01/09 04:34:48;;;;;;;25.45;13.95;;;-4.00;89.70;;;;;;4979660;28;20395;-80
2021/01/09 04:37:15;;;;;;;26.67;15.02;;;-3.90;89.60;;;;;;4979287;28;20047;-82
2021/01/09 04:39:40;;;;;;;31.95;14.30;;;-3.80;89.20;;;;;;4977012;28;20027;-81
2021/01/09 04:42:07;;;;;;;28.50;13.48;;;-3.80;89.20;;;;;;4976689;28;20374;-81
2021/01/09 04:44:33;;;;;;;31.88;16.05;;;-3.70;89.30;;;;;;4974985;28;20026;-80
2021/01/09 04:47:02;;;;;;;24.73;13.82;;;-3.70;89.10;;;;;;4975551;28;20414;-81
2021/01/09 04:49:29;;;;;;;24.70;15.18;;;-3.70;88.90;;;;;;4977456;28;20035;-81
2021/01/09 04:51:55;;;;;;;;;;;-3.70;88.90;;;;;;4978212;28;20011;-81
2021/01/09 04:54:24;;;;;;;29.10;14.68;;;-3.60;89.10;;;;;;4977445;28;20299;-81
2021/01/09 04:56:55;;;;;;;26.45;14.50;;;-3.60;88.90;;;;;;4976204;28;20507;-82
2021/01/09 04:59:24;;;;;;;30.58;15.57;;;-3.70;88.30;;;;;;4976445;28;20018;-81
2021/01/09 05:01:51;;;;;;;27.00;15.88;;;-3.60;89.00;;;;;;4976504;28;20023;-81
2021/01/09 05:04:19;;;;;;;25.88;15.20;;;-3.60;88.50;;;;;;4977201;28;20473;-82
2021/01/09 05:06:46;;;;;;;24.15;13.93;;;-3.60;88.50;;;;;;4981171;28;20118;-79
2021/01/09 05:09:13;;;;;;;25.55;15.32;;;-3.50;88.40;;;;;;4986694;28;20030;-79
2021/01/09 05:11:40;;;;;;;23.85;15.20;;;-3.60;87.90;;;;;;4983095;28;20033;-80
2021/01/09 05:14:07;;;;;;;29.13;16.38;;;-3.60;88.10;;;;;;4977115;28;20025;-81
2021/01/09 05:16:34;;;;;;;32.67;14.95;;;-3.60;88.30;;;;;;4976734;28;20115;-80
2021/01/09 05:19:02;;;;;;;25.38;14.55;;;-3.60;88.00;;;;;;4976363;28;20499;-82
2021/01/09 05:21:29;;;;;;;27.48;14.77;;;-3.60;88.00;;;;;;4976385;28;20077;-81
2021/01/09 05:23:57;;;;;;;23.63;12.95;;;-3.60;88.10;;;;;;4977592;28;20477;-80
2021/01/09 05:26:23;;;;;;;29.10;16.65;;;-3.60;88.00;;;;;;4977953;28;20461;-80
2021/01/09 05:29:08;;;;;;;29.38;16.08;;;-3.60;87.80;;;;;;4977164;28;20039;-80
2021/01/09 05:31:37;;;;;;;29.40;14.80;;;-3.70;88.00;;;;;;4977218;28;20070;-81
2021/01/09 05:34:04;;;;;;;31.70;15.88;;;-3.70;88.30;;;;;;4982798;28;20031;-80
2021/01/09 05:36:31;;;;;;;33.58;18.55;;;-3.70;88.20;;;;;;4986883;28;20033;-80
2021/01/09 05:38:57;;;;;;;29.27;18.00;;;-3.70;88.30;;;;;;4981868;28;20476;-81
2021/01/09 05:41:24;;;;;;;31.90;16.10;;;-3.70;88.30;;;;;;4978052;28;20026;-80
2021/01/09 05:44:16;;;;;;;29.42;16.55;;;-3.70;88.20;;;;;;4976786;28;20023;-82
2021/01/09 05:46:44;;;;;;;36.15;20.27;;;-3.80;87.90;;;;;;4972560;28;20550;-80
2021/01/09 05:49:10;;;;;;;37.35;16.13;;;-3.80;88.30;;;;;;4975806;28;20396;-81
2021/01/09 05:51:40;;;;;;;26.45;16.63;;;-3.80;88.70;;;;;;4975781;28;20027;-82
2021/01/09 05:54:07;;;;;;;30.35;19.20;;;-3.80;88.50;;;;;;4975722;28;20101;-81
2021/01/09 05:56:39;;;;;;;25.63;15.52;;;-3.80;88.00;;;;;;4976054;28;20023;-81
2021/01/09 05:59:04;;;;;;;27.15;15.68;;;-3.90;88.20;;;;;;4977268;28;20026;-80
2021/01/09 06:01:35;;;;;;;29.38;14.85;;;-3.80;88.40;;;;;;4974689;28;20030;-82
2021/01/09 06:04:06;;;;;;;29.23;17.48;;;-3.80;88.50;;;;;;4975599;28;20432;-81
2021/01/09 06:07:08;;;;;;;37.05;16.98;;;-3.70;88.20;;;;;;4975747;28;20027;-82
2021/01/09 06:09:46;;;;;;;33.58;15.90;;;-3.70;88.20;;;;;;4977973;28;20180;-81
2021/01/09 06:12:13;;;;;;;31.58;16.60;;;-3.70;87.60;;;;;;4972985;28;20161;-80
2021/01/09 06:14:45;;;;;;;35.30;17.92;;;-3.80;87.60;;;;;;4975061;28;20027;-81
2021/01/09 06:17:13;;;;;;;35.70;16.65;;;-3.90;88.00;;;;;;4974712;28;20030;-80
2021/01/09 06:19:40;;;;;;;30.02;16.58;;;-4.00;88.60;;;;;;4973697;28;20030;-82
2021/01/09 06:22:06;;;;;;;30.70;16.50;;;-3.90;88.50;;;;;;4975117;28;20155;-81
2021/01/09 06:24:33;;;;;;;29.58;16.05;;;-4.00;88.30;;;;;;4976204;28;20022;-81
2021/01/09 06:27:00;;;;;;;30.75;16.38;;;-4.00;88.60;;;;;;4975890;28;20072;-81
2021/01/09 06:29:28;;;;;;;31.97;17.77;;;-3.90;88.70;;;;;;4958705;28;20035;-81
2021/01/09 06:31:54;;;;;;;;;;;-3.90;88.60;;;;;;4971202;28;20027;-81
2021/01/09 06:34:22;;;;;;;26.55;15.45;;;-3.90;88.20;;;;;;4983283;28;20411;-82
2021/01/09 06:37:04;;;;;;;28.45;15.70;;;-4.00;88.00;;;;;;4974812;28;20062;-81
2021/01/09 06:39:35;;;;;;;24.50;14.10;;;-4.00;88.20;;;;;;4975045;28;20027;-81
2021/01/09 06:42:04;;;;;;;30.92;17.08;;;-4.00;88.20;;;;;;4957016;28;20488;-80
2021/01/09 06:44:31;;;;;;;23.83;12.25;;;-4.00;88.00;;;;;;4967746;28;20058;-81
2021/01/09 06:46:57;;;;;;;27.00;14.65;;;-4.00;88.30;;;;;;4974795;28;20023;-80
2021/01/09 06:49:25;;;;;;;29.17;14.60;;;-4.10;88.60;;;;;;4974807;28;20077;-81
2021/01/09 06:51:55;;;;;;;36.58;16.70;;;-4.10;89.10;;;;;;4973839;28;20101;-79
2021/01/09 06:54:25;;;;;;;34.70;19.50;;;-4.10;89.20;;;;;;4974874;28;20019;-80
2021/01/09 06:57:12;;;;;;;33.30;17.10;;;-4.10;89.00;;;;;;4974918;28;20092;-80
2021/01/09 06:59:43;;;;;;;30.98;17.70;;;-4.00;89.20;;;;;;4975749;28;20023;-80
2021/01/09 07:02:10;;;;;;;32.20;17.38;;;-4.00;89.20;;;;;;4975166;28;20481;-81
2021/01/09 07:04:56;;;;;;;31.60;17.08;;;-3.90;89.00;;;;;;4975740;28;20023;-79
2021/01/09 07:07:54;;;;;;;36.08;17.60;;;-3.90;88.90;;;;;;4989114;28;20038;-81
2021/01/09 07:10:28;;;;;;;30.15;15.82;;;-4.00;88.60;;;;;;4986252;28;20027;-81
2021/01/09 07:12:54;;;;;;;28.92;14.68;;;-4.00;88.40;;;;;;4984397;28;20045;-81
2021/01/09 07:15:21;;;;;;;27.20;14.60;;;-4.00;88.70;;;;;;4963383;28;20023;-80
2021/01/09 07:17:56;;;;;;;23.30;11.98;;;-4.10;88.40;;;;;;4974674;28;20093;-80
2021/01/09 07:20:25;;;;;;;34.10;17.83;;;-4.10;88.70;;;;;;4968189;28;20027;-82
2021/01/09 07:22:56;;;;;;;32.10;16.00;;;-4.10;88.60;;;;;;4975093;28;20041;-81
2021/01/09 07:25:33;;;;;;;33.03;16.73;;;-4.10;88.30;;;;;;4974214;28;20019;-80
2021/01/09 07:28:02;;;;;;;43.00;22.58;;;-4.20;88.30;;;;;;4975007;28;20113;-80
2021/01/09 07:30:29;;;;;;;31.52;15.20;;;-4.20;89.00;;;;;;4977782;28;20025;-80
2021/01/09 07:32:56;;;;;;;;;;;-4.20;89.30;;;;;;4986224;28;20026;-81
2021/01/09 07:35:26;;;;;;;33.80;17.73;;;-4.20;89.30;;;;;;4965806;28;19906;-80
2021/01/09 07:37:58;;;;;;;28.92;15.10;;;-4.20;89.10;;;;;;4961698;28;20019;-79
2021/01/09 07:40:25;;;;;;;25.58;13.80;;;-4.20;89.40;;;;;;4973648;28;20023;-80
2021/01/09 07:42:51;;;;;;;31.65;16.38;;;-4.20;88.90;;;;;;4974522;28;20031;-80
2021/01/09 07:45:37;;;;;;;30.35;15.50;;;-4.10;89.00;;;;;;4975760;28;20033;-81
2021/01/09 07:48:19;;;;;;;25.63;15.10;;;-4.00;89.00;;;;;;4974308;28;20388;-80
2021/01/09 07:50:45;;;;;;;28.80;14.32;;;-4.00;88.90;;;;;;4974208;28;20445;-82
2021/01/09 07:53:24;;;;;;;31.00;14.68;;;-3.90;88.70;;;;;;4974615;28;20034;-80
2021/01/09 07:55:50;;;;;;;28.95;16.23;;;-3.90;88.60;;;;;;4976137;28;20057;-78
2021/01/09 07:58:16;;;;;;;35.92;15.68;;;-3.80;88.30;;;;;;4974739;28;20055;-80
2021/01/09 08:00:42;;;;;;;25.17;14.45;;;-3.80;87.60;;;;;;4975481;28;20027;-82
2021/01/09 08:03:24;;;;;;;33.20;16.48;;;-3.80;87.60;;;;;;4979010;28;20027;-80
2021/01/09 08:05:49;;;;;;;30.13;15.25;;;-3.90;87.80;;;;;;4979841;28;20089;-80
2021/01/09 08:08:15;;;;;;;24.65;14.32;;;-3.90;87.90;;;;;;4961065;28;20031;-81
2021/01/09 08:10:42;;;;;;;27.95;16.15;;;-3.90;87.70;;;;;;4978032;28;20050;-81
2021/01/09 08:13:11;;;;;;;29.05;14.77;;;-3.80;87.90;;;;;;4977780;28;20026;-81
2021/01/09 08:15:37;;;;;;;31.70;16.48;;;-3.80;87.90;;;;;;4977461;28;20031;-82
2021/01/09 08:18:07;;;;;;;30.35;13.90;;;-3.70;88.00;;;;;;4954928;28;20050;-81
2021/01/09 08:20:33;;;;;;;24.73;13.55;;;-3.70;86.70;;;;;;4977413;28;20495;-81
2021/01/09 08:23:06;;;;;;;26.48;13.77;;;-3.80;87.10;;;;;;4978733;28;20027;-81
2021/01/09 08:25:33;;;;;;;20.30;11.05;;;-3.80;87.40;;;;;;4980800;28;20102;-80
2021/01/09 08:28:03;;;;;;;28.17;15.10;;;-3.80;86.80;;;;;;4979677;28;20133;-81
2021/01/09 08:30:34;;;;;;;28.70;15.15;;;-3.90;87.40;;;;;;4979890;28;20035;-81
2021/01/09 08:33:08;;;;;;;30.55;15.10;;;-3.90;88.00;;;;;;4997586;28;20027;-82
2021/01/09 08:35:47;;;;;;;28.45;13.75;;;-3.90;88.00;;;;;;4982066;28;20053;-81
2021/01/09 08:38:13;;;;;;;31.30;16.67;;;-3.80;88.00;;;;;;4978141;28;20097;-80
2021/01/09 08:40:40;;;;;;;26.10;14.25;;;-3.80;87.90;;;;;;4977783;28;20055;-81
2021/01/09 08:43:13;;;;;;;36.73;17.23;;;-3.70;87.90;;;;;;4977425;28;20387;-82
2021/01/09 08:45:47;;;;;;;28.13;14.77;;;-3.60;87.80;;;;;;4974456;28;20092;-82
2021/01/09 08:48:22;;;;;;;24.30;14.15;;;-3.60;87.10;;;;;;4958312;28;20056;-81
2021/01/09 08:51:01;;;;;;;30.23;16.45;;;-3.60;86.90;;;;;;4976337;28;20097;-80
2021/01/09 08:53:29;;;;;;;29.77;15.80;;;-3.70;86.10;;;;;;4954097;28;20015;-82
2021/01/09 08:56:03;;;;;;;28.95;14.82;;;-3.70;86.60;;;;;;4959321;28;20031;-81
2021/01/09 08:58:34;;;;;;;27.33;15.60;;;-3.70;86.70;;;;;;4983029;28;20027;-81
2021/01/09 09:01:03;;;;;;;33.10;14.95;;;-3.70;86.80;;;;;;4964029;28;20333;-82
2021/01/09 09:03:31;;;;;;;29.83;16.50;;;-3.70;87.40;;;;;;4979010;28;20054;-83
2021/01/09 09:05:57;;;;;;;;;;;-3.60;86.50;;;;;;4988026;28;20023;-81
2021/01/09 09:08:27;;;;;;;27.67;14.02;;;-3.70;86.20;;;;;;4990486;28;19937;-81
2021/01/09 09:10:55;;;;;;;25.42;15.82;;;-3.80;86.00;;;;;;4969329;28;20081;-81
2021/01/09 09:13:24;;;;;;;33.03;15.73;;;-3.80;86.60;;;;;;4978904;28;20037;-81
2021/01/09 09:15:52;;;;;;;32.00;18.15;;;-3.90;87.00;;;;;;4975371;28;20037;-81
2021/01/09 09:18:19;;;;;;;34.45;17.10;;;-3.90;87.10;;;;;;4975997;28;20106;-83
2021/01/09 09:20:50;;;;;;;20.75;11.70;;;-3.90;87.20;;;;;;4975910;28;20445;-79
2021/01/09 09:23:21;;;;;;;27.58;16.33;;;-4.00;87.60;;;;;;4958871;28;20029;-80
2021/01/09 09:26:11;;;;;;;26.65;16.55;;;-4.00;88.20;;;;;;4980729;28;20121;-80
2021/01/09 09:28:44;;;;;;;29.17;14.90;;;-4.00;88.30;;;;;;4950681;28;20631;-81
2021/01/09 09:31:30;;;;;;;28.27;14.68;;;-4.00;88.60;;;;;;4978185;28;20023;-79
2021/01/09 09:34:09;;;;;;;38.45;16.02;;;-4.00;88.50;;;;;;4977966;28;20031;-81
2021/01/09 09:36:40;;;;;;;28.33;13.57;;;-4.00;88.60;;;;;;4974951;28;20018;-80
2021/01/09 09:39:21;;;;;;;34.33;18.70;;;-4.00;88.90;;;;;;4975872;28;20026;-80
2021/01/09 09:41:51;;;;;;;28.27;15.10;;;-4.00;88.70;;;;;;4956325;28;20035;-80
2021/01/09 09:44:19;;;;;;;31.48;16.77;;;-4.00;88.30;;;;;;4977356;28;20511;-82
2021/01/09 09:46:48;;;;;;;34.97;16.75;;;-4.00;88.30;;;;;;4956242;28;20029;-84
2021/01/09 09:49:14;;;;;;;26.13;15.75;;;-3.90;88.60;;;;;;4977794;28;20474;-85
2021/01/09 09:51:45;;;;;;;33.17;18.52;;;-3.90;88.60;;;;;;4975074;28;20070;-86
2021/01/09 09:54:11;;;;;;;30.73;18.08;;;-3.80;88.20;;;;;;4959069;28;20026;-84
2021/01/09 09:56:40;;;;;;;32.35;16.42;;;-3.70;88.10;;;;;;4975920;28;20155;-86
2021/01/09 09:59:11;;;;;;;33.58;16.60;;;-3.70;87.20;;;;;;4976651;28;20023;-85
2021/01/09 10:01:38;;;;;;;27.90;17.50;;;-3.70;87.40;;;;;;4976450;28;20498;-84
2021/01/09 10:04:22;;;;;;;32.63;15.38;;;-3.70;87.80;;;;;;4977417;28;20027;-85
2021/01/09 10:06:48;;;;;;;30.90;14.93;;;-3.80;88.00;;;;;;4954500;28;20030;-84
2021/01/09 10:09:17;;;;;;;29.48;15.38;;;-3.80;88.20;;;;;;4959219;28;20181;-84
2021/01/09 10:11:46;;;;;;;31.77;16.30;;;-3.80;88.20;;;;;;4953572;28;20054;-85
2021/01/09 10:14:13;;;;;;;31.52;17.95;;;-3.80;88.20;;;;;;4978299;28;20030;-84
2021/01/09 10:16:39;;;;;;;35.58;17.38;;;-3.70;88.30;;;;;;4980700;28;20045;-84
2021/01/09 10:19:12;;;;;;;29.55;14.43;;;-3.60;88.10;;;;;;4978589;28;20022;-86
2021/01/09 10:21:38;;;;;;;26.55;13.50;;;-3.60;87.60;;;;;;4965691;28;20449;-83
2021/01/09 10:24:05;;;;;;;26.63;15.25;;;-3.70;87.10;;;;;;4959875;28;20035;-84
2021/01/09 10:26:32;;;;;;;29.63;15.75;;;-3.70;87.60;;;;;;4975561;28;20040;-83
2021/01/09 10:29:00;;;;;;;34.28;16.17;;;-3.80;87.80;;;;;;4976780;28;20112;-83
2021/01/09 10:31:30;;;;;;;31.13;16.05;;;-3.70;88.20;;;;;;4981769;28;20027;-82
2021/01/09 10:33:56;;;;;;;33.28;16.77;;;-3.70;88.10;;;;;;4978097;28;20026;-84
2021/01/09 10:36:26;;;;;;;31.13;17.10;;;-3.60;88.00;;;;;;4976909;28;20035;-86
2021/01/09 10:38:53;;;;;;;34.92;17.23;;;-3.50;87.90;;;;;;4961496;28;20027;-89
2021/01/09 10:41:20;;;;;;;36.45;16.52;;;-3.50;87.50;;;;;;4979100;28;20019;-86
2021/01/09 10:43:46;;;;;;;27.38;16.90;;;-3.50;87.50;;;;;;4977351;28;20034;-85
2021/01/09 10:46:22;;;;;;;27.20;15.30;;;-3.40;87.70;;;;;;4991254;28;20030;-84
2021/01/09 10:48:52;;;;;;;25.73;14.88;;;-3.40;86.90;;;;;;4977625;28;20026;-84
2021/01/09 10:51:19;;;;;;;26.17;15.52;;;-3.40;86.50;;;;;;4973133;28;20100;-84
2021/01/09 10:53:46;;;;;;;27.88;14.88;;;-3.40;86.70;;;;;;4973978;28;20129;-82
2021/01/09 10:56:12;;;;;;;26.53;16.23;;;-3.50;87.30;;;;;;4958551;28;20109;-82
2021/01/09 10:58:43;;;;;;;29.52;15.23;;;-3.50;87.20;;;;;;4975845;28;20647;-83
2021/01/09 11:01:09;;;;;;;27.35;16.05;;;-3.50;87.00;;;;;;4953066;28;20031;-82
2021/01/09 11:03:35;;;;;;;28.48;16.35;;;-3.60;87.10;;;;;;4973127;28;20034;-83
2021/01/09 11:06:02;;;;;;;29.08;16.02;;;-3.70;87.30;;;;;;4994159;28;20023;-83
2021/01/09 11:08:28;;;;;;;29.42;14.93;;;-3.70;87.60;;;;;;4985779;28;20064;-80
2021/01/09 11:10:55;;;;;;;26.50;15.55;;;-3.60;87.90;;;;;;4979762;28;20039;-85
2021/01/09 11:13:21;;;;;;;25.70;14.73;;;-3.60;87.80;;;;;;4961175;28;20038;-84
2021/01/09 11:15:50;;;;;;;30.17;15.88;;;-3.60;87.90;;;;;;4979797;28;20035;-84
2021/01/09 11:18:17;;;;;;;24.60;12.88;;;-3.70;88.50;;;;;;4985802;28;20027;-84
2021/01/09 11:20:50;;;;;;;30.23;18.05;;;-3.70;88.20;;;;;;4977077;28;20053;-82
2021/01/09 11:23:17;;;;;;;27.88;14.77;;;-3.80;88.50;;;;;;4984014;28;20034;-82
2021/01/09 11:25:44;;;;;;;32.88;16.80;;;-3.70;88.80;;;;;;4980429;28;20047;-84
2021/01/09 11:28:10;;;;;;;;;;;-3.70;88.60;;;;;;4987191;28;20018;-83
2021/01/09 11:30:37;;;;;;;26.25;14.50;;;-3.60;88.40;;;;;;4980108;28;19906;-86
2021/01/09 11:33:03;;;;;;;28.77;14.20;;;-3.50;88.30;;;;;;4969042;28;20054;-83
2021/01/09 11:35:29;;;;;;;25.48;15.25;;;-3.50;88.40;;;;;;4958816;28;20842;-84
2021/01/09 11:37:58;;;;;;;26.77;15.30;;;-3.50;87.50;;;;;;4966158;28;20023;-83
2021/01/09 11:40:27;;;;;;;22.75;14.35;;;-3.50;87.10;;;;;;4986228;28;20022;-83
2021/01/09 11:42:53;;;;;;;28.00;14.40;;;-3.60;87.30;;;;;;4984815;28;20047;-84
2021/01/09 11:45:20;;;;;;;24.45;12.18;;;-3.70;88.70;;;;;;4984958;28;20381;-84
2021/01/09 11:47:46;;;;;;;26.73;14.97;;;-3.70;88.20;;;;;;4985424;28;20106;-86
2021/01/09 11:50:13;;;;;;;30.13;15.38;;;-3.70;88.80;;;;;;4963685;28;20316;-84
2021/01/09 11:52:39;;;;;;;25.38;12.82;;;-3.70;88.00;;;;;;4981078;28;20034;-85
2021/01/09 11:55:09;;;;;;;36.13;17.52;;;-3.80;88.00;;;;;;4984338;28;20030;-83
2021/01/09 11:57:35;;;;;;;29.05;16.60;;;-3.90;88.20;;;;;;4962908;28;20122;-86
2021/01/09 12:00:05;;;;;;;29.02;16.85;;;-3.80;88.80;;;;;;4973758;28;20034;-84
2021/01/09 12:02:31;;;;;;;22.27;12.80;;;-3.80;88.60;;;;;;4981524;28;20023;-84
2021/01/09 12:04:57;;;;;;;27.90;16.25;;;-3.70;88.60;;;;;;4963221;28;20035;-83
2021/01/09 12:07:23;;;;;;;29.90;15.20;;;-3.80;88.60;;;;;;4959809;28;20027;-85
2021/01/09 12:09:49;;;;;;;30.25;16.73;;;-3.70;88.80;;;;;;4952615;28;20042;-83
2021/01/09 12:12:15;;;;;;;30.95;16.35;;;-3.60;89.00;;;;;;4982007;28;20022;-81
2021/01/09 12:14:41;;;;;;;33.28;14.85;;;-3.60;89.00;;;;;;4982973;28;20456;-84
2021/01/09 12:17:08;;;;;;;29.90;14.85;;;-3.60;88.40;;;;;;4981797;28;20082;-83
2021/01/09 12:19:33;;;;;;;28.45;16.02;;;-3.60;88.50;;;;;;4967782;28;20080;-82
2021/01/09 12:21:59;;;;;;;33.80;17.40;;;-3.50;88.50;;;;;;4960963;28;20061;-83
2021/01/09 12:24:26;;;;;;;31.90;18.65;;;-3.50;88.30;;;;;;4964017;28;20034;-83
2021/01/09 12:26:56;;;;;;;33.35;16.42;;;-3.60;87.20;;;;;;4982706;28;20043;-85
2021/01/09 12:29:22;;;;;;;29.60;15.18;;;-3.60;87.50;;;;;;4988088;28;20054;-81
2021/01/09 12:31:48;;;;;;;25.52;14.57;;;-3.70;87.90;;;;;;4990170;28;20018;-84
2021/01/09 12:34:17;;;;;;;33.40;14.70;;;-3.70;88.50;;;;;;4999070;28;20424;-83
2021/01/09 12:36:46;;;;;;;30.65;15.40;;;-3.80;88.70;;;;;;4967653;28;20027;-81